This is the latest recevied weather packets stored in our database for station/object N9XRG. If no packets are shown the sender has not sent any weather packets the latest 10 day(s).
| Time | Temp. | Humidity | Pressure | Rain* | Wind** | Luminosity | Snow |
|---|---|---|---|---|---|---|---|
| 1777918562 | 25.56° C | 46% | 1003.2 hPa | 0 mm | - | 949 W/m² | - |
| 1777918260 | 25° C | 47% | 1003.1 hPa | 0 mm | - | 937 W/m² | - |
| 1777917958 | 24.44° C | 49% | 1003.2 hPa | 0 mm | - | 926 W/m² | - |
| 1777917657 | 25° C | 47% | 1003.3 hPa | 0 mm | - | 934 W/m² | - |
| 1777917354 | 24.44° C | 48% | 1003 hPa | 0 mm | - | 925 W/m² | - |
| 1777917050 | 24.44° C | 49% | 1003.3 hPa | 0 mm | - | 928 W/m² | - |
| 1777916749 | 24.44° C | 49% | 1003.2 hPa | 0 mm | - | 910 W/m² | - |
| 1777916445 | 25° C | 47% | 1003.2 hPa | 0 mm | - | 927 W/m² | - |
| 1777916142 | 24.44° C | 49% | 1003.6 hPa | 0 mm | - | 943 W/m² | - |
| 1777915840 | 24.44° C | 48% | 1003.5 hPa | 0 mm | - | 948 W/m² | - |
| 1777915535 | 23.89° C | 50% | 1003.8 hPa | 0 mm | - | 929 W/m² | - |
| 1777915232 | 23.89° C | 48% | 1003.7 hPa | 0 mm | - | 936 W/m² | - |
| 1777914929 | 23.33° C | 50% | 1003.7 hPa | 0 mm | - | 925 W/m² | - |
| 1777914626 | 23.89° C | 49% | 1003.8 hPa | 0 mm | - | 918 W/m² | - |
| 1777914322 | 23.33° C | 49% | 1004.1 hPa | 0 mm | - | 925 W/m² | - |
| 1777914020 | 23.89° C | 48% | 1004.1 hPa | 0 mm | - | 913 W/m² | - |
| 1777913715 | 23.33° C | 49% | 1004.4 hPa | 0 mm | - | 921 W/m² | - |
| 1777913413 | 23.33° C | 49% | 1004.2 hPa | 0 mm | - | 928 W/m² | - |
| 1777913109 | 23.89° C | 47% | 1004.4 hPa | 0 mm | - | 960 W/m² | - |
| 1777912805 | 23.33° C | 48% | 1004.6 hPa | 0 mm | - | 861 W/m² | - |
| 1777912501 | 23.33° C | 46% | 1004.6 hPa | 0 mm | - | 897 W/m² | - |
| 1777912198 | 22.78° C | 49% | 1004.3 hPa | 0 mm | - | 889 W/m² | - |
| 1777911894 | 23.33° C | 51% | 1004.6 hPa | 0 mm | - | 883 W/m² | - |
| 1777911591 | 22.78° C | 49% | 1004.6 hPa | 0 mm | - | 879 W/m² | - |
| 1777911287 | 22.78° C | 49% | 1004.9 hPa | 0 mm | - | 869 W/m² | - |
* Rain latest hour (hover to see other rain measurements)
** Current wind speed in m/s (hover to see current wind gust speed)